sensor_id;sensor_type;location;lat;lon;timestamp;P1;durP1;ratioP1;P2;durP2;ratioP2
48823;SDS011;34640;53.590;10.054;2022-10-22T00:01:30;24.70;;;12.77;;
48823;SDS011;34640;53.590;10.054;2022-10-22T00:04:04;27.70;;;14.98;;
48823;SDS011;34640;53.590;10.054;2022-10-22T00:06:38;25.00;;;14.15;;
48823;SDS011;34640;53.590;10.054;2022-10-22T00:09:12;22.90;;;13.82;;
48823;SDS011;34640;53.590;10.054;2022-10-22T00:11:46;23.42;;;13.90;;
48823;SDS011;34640;53.590;10.054;2022-10-22T00:14:20;29.05;;;17.00;;
48823;SDS011;34640;53.590;10.054;2022-10-22T00:16:55;26.15;;;14.77;;
48823;SDS011;34640;53.590;10.054;2022-10-22T00:19:32;27.25;;;16.10;;
48823;SDS011;34640;53.590;10.054;2022-10-22T00:22:05;27.15;;;15.13;;
48823;SDS011;34640;53.590;10.054;2022-10-22T00:24:41;24.45;;;14.07;;
48823;SDS011;34640;53.590;10.054;2022-10-22T00:27:14;26.90;;;14.55;;
48823;SDS011;34640;53.590;10.054;2022-10-22T00:29:48;27.73;;;17.42;;
48823;SDS011;34640;53.590;10.054;2022-10-22T00:32:23;28.75;;;15.50;;
48823;SDS011;34640;53.590;10.054;2022-10-22T00:34:57;28.60;;;15.50;;
48823;SDS011;34640;53.590;10.054;2022-10-22T00:37:30;23.27;;;14.48;;
48823;SDS011;34640;53.590;10.054;2022-10-22T00:40:04;24.15;;;14.77;;
48823;SDS011;34640;53.590;10.054;2022-10-22T00:42:38;29.48;;;14.68;;
48823;SDS011;34640;53.590;10.054;2022-10-22T00:45:15;24.13;;;14.30;;
48823;SDS011;34640;53.590;10.054;2022-10-22T00:47:54;22.67;;;14.65;;
48823;SDS011;34640;53.590;10.054;2022-10-22T00:50:32;22.50;;;12.50;;
48823;SDS011;34640;53.590;10.054;2022-10-22T00:53:09;21.58;;;13.55;;
48823;SDS011;34640;53.590;10.054;2022-10-22T00:55:48;21.77;;;13.45;;
48823;SDS011;34640;53.590;10.054;2022-10-22T00:58:25;22.67;;;14.07;;
48823;SDS011;34640;53.590;10.054;2022-10-22T01:01:00;23.42;;;14.50;;
48823;SDS011;34640;53.590;10.054;2022-10-22T01:03:36;22.95;;;14.32;;
48823;SDS011;34640;53.590;10.054;2022-10-22T01:06:11;23.00;;;13.90;;
48823;SDS011;34640;53.590;10.054;2022-10-22T01:08:50;29.38;;;15.23;;
48823;SDS011;34640;53.590;10.054;2022-10-22T01:11:33;23.02;;;14.23;;
48823;SDS011;34640;53.590;10.054;2022-10-22T01:14:12;25.10;;;14.05;;
48823;SDS011;34640;53.590;10.054;2022-10-22T01:16:53;25.42;;;13.90;;
48823;SDS011;34640;53.590;10.054;2022-10-22T01:19:41;24.40;;;14.15;;
48823;SDS011;34640;53.590;10.054;2022-10-22T01:22:28;30.65;;;15.18;;
48823;SDS011;34640;53.590;10.054;2022-10-22T01:25:06;27.67;;;15.82;;
48823;SDS011;34640;53.590;10.054;2022-10-22T01:27:47;21.52;;;14.85;;
48823;SDS011;34640;53.590;10.054;2022-10-22T01:30:29;23.85;;;14.90;;
48823;SDS011;34640;53.590;10.054;2022-10-22T01:33:04;23.02;;;14.77;;
48823;SDS011;34640;53.590;10.054;2022-10-22T01:35:41;27.98;;;15.55;;
48823;SDS011;34640;53.590;10.054;2022-10-22T01:38:18;31.73;;;16.27;;
48823;SDS011;34640;53.590;10.054;2022-10-22T01:40:54;26.02;;;16.10;;
48823;SDS011;34640;53.590;10.054;2022-10-22T01:43:28;29.52;;;16.33;;
48823;SDS011;34640;53.590;10.054;2022-10-22T01:46:04;33.47;;;16.30;;
48823;SDS011;34640;53.590;10.054;2022-10-22T01:48:42;24.70;;;14.65;;
48823;SDS011;34640;53.590;10.054;2022-10-22T01:51:26;26.58;;;15.30;;
48823;SDS011;34640;53.590;10.054;2022-10-22T01:54:14;27.27;;;15.30;;
48823;SDS011;34640;53.590;10.054;2022-10-22T01:57:02;26.98;;;15.77;;
48823;SDS011;34640;53.590;10.054;2022-10-22T01:59:43;27.02;;;15.00;;
48823;SDS011;34640;53.590;10.054;2022-10-22T02:02:28;26.00;;;15.27;;
48823;SDS011;34640;53.590;10.054;2022-10-22T02:05:12;26.73;;;16.15;;
48823;SDS011;34640;53.590;10.054;2022-10-22T02:07:51;26.73;;;15.55;;
48823;SDS011;34640;53.590;10.054;2022-10-22T02:10:27;26.30;;;15.20;;
48823;SDS011;34640;53.590;10.054;2022-10-22T02:13:02;26.05;;;15.65;;
48823;SDS011;34640;53.590;10.054;2022-10-22T02:15:37;26.85;;;16.40;;
48823;SDS011;34640;53.590;10.054;2022-10-22T02:18:15;25.98;;;15.93;;
48823;SDS011;34640;53.590;10.054;2022-10-22T02:20:52;29.35;;;15.88;;
48823;SDS011;34640;53.590;10.054;2022-10-22T02:23:27;28.50;;;15.80;;
48823;SDS011;34640;53.590;10.054;2022-10-22T02:26:02;25.23;;;15.45;;
48823;SDS011;34640;53.590;10.054;2022-10-22T02:28:44;28.08;;;15.52;;
48823;SDS011;34640;53.590;10.054;2022-10-22T02:31:25;31.80;;;16.33;;
48823;SDS011;34640;53.590;10.054;2022-10-22T02:34:04;30.73;;;16.05;;
48823;SDS011;34640;53.590;10.054;2022-10-22T02:36:42;27.17;;;15.55;;
48823;SDS011;34640;53.590;10.054;2022-10-22T02:39:21;34.60;;;16.65;;
48823;SDS011;34640;53.590;10.054;2022-10-22T02:41:55;32.25;;;16.52;;
48823;SDS011;34640;53.590;10.054;2022-10-22T02:44:29;30.42;;;16.23;;
48823;SDS011;34640;53.590;10.054;2022-10-22T02:47:03;30.38;;;17.17;;
48823;SDS011;34640;53.590;10.054;2022-10-22T02:49:38;28.60;;;16.77;;
48823;SDS011;34640;53.590;10.054;2022-10-22T02:52:12;31.48;;;16.60;;
48823;SDS011;34640;53.590;10.054;2022-10-22T02:54:45;32.72;;;16.48;;
48823;SDS011;34640;53.590;10.054;2022-10-22T02:57:19;30.17;;;17.50;;
48823;SDS011;34640;53.590;10.054;2022-10-22T02:59:57;32.75;;;17.75;;
48823;SDS011;34640;53.590;10.054;2022-10-22T03:02:31;26.15;;;15.70;;
48823;SDS011;34640;53.590;10.054;2022-10-22T03:05:07;27.70;;;16.15;;
48823;SDS011;34640;53.590;10.054;2022-10-22T03:07:41;30.17;;;17.35;;
48823;SDS011;34640;53.590;10.054;2022-10-22T03:10:15;29.50;;;17.08;;
48823;SDS011;34640;53.590;10.054;2022-10-22T03:12:48;38.63;;;17.70;;
48823;SDS011;34640;53.590;10.054;2022-10-22T03:15:22;33.22;;;16.92;;
48823;SDS011;34640;53.590;10.054;2022-10-22T03:17:56;30.80;;;16.63;;
48823;SDS011;34640;53.590;10.054;2022-10-22T03:20:31;31.48;;;15.23;;
48823;SDS011;34640;53.590;10.054;2022-10-22T03:23:04;26.10;;;16.58;;
48823;SDS011;34640;53.590;10.054;2022-10-22T03:25:38;29.98;;;16.10;;
48823;SDS011;34640;53.590;10.054;2022-10-22T03:28:15;25.95;;;16.17;;
48823;SDS011;34640;53.590;10.054;2022-10-22T03:30:50;26.60;;;15.68;;
48823;SDS011;34640;53.590;10.054;2022-10-22T03:33:24;26.52;;;16.50;;
48823;SDS011;34640;53.590;10.054;2022-10-22T03:35:59;26.42;;;16.30;;
48823;SDS011;34640;53.590;10.054;2022-10-22T03:38:33;29.30;;;16.67;;
48823;SDS011;34640;53.590;10.054;2022-10-22T03:41:07;31.65;;;15.98;;
48823;SDS011;34640;53.590;10.054;2022-10-22T03:43:42;34.08;;;17.27;;
48823;SDS011;34640;53.590;10.054;2022-10-22T03:46:20;30.77;;;15.55;;
48823;SDS011;34640;53.590;10.054;2022-10-22T03:48:54;27.50;;;15.10;;
48823;SDS011;34640;53.590;10.054;2022-10-22T03:51:29;25.75;;;15.50;;
48823;SDS011;34640;53.590;10.054;2022-10-22T03:54:03;28.60;;;16.00;;
48823;SDS011;34640;53.590;10.054;2022-10-22T03:56:36;30.15;;;16.27;;
48823;SDS011;34640;53.590;10.054;2022-10-22T03:59:10;27.38;;;16.20;;
48823;SDS011;34640;53.590;10.054;2022-10-22T04:01:44;33.30;;;16.42;;
48823;SDS011;34640;53.590;10.054;2022-10-22T04:04:18;25.50;;;15.70;;
48823;SDS011;34640;53.590;10.054;2022-10-22T04:06:53;35.13;;;16.35;;
48823;SDS011;34640;53.590;10.054;2022-10-22T04:09:26;26.38;;;16.15;;
48823;SDS011;34640;53.590;10.054;2022-10-22T04:12:03;26.48;;;15.45;;
48823;SDS011;34640;53.590;10.054;2022-10-22T04:14:39;34.25;;;16.52;;
48823;SDS011;34640;53.590;10.054;2022-10-22T04:17:12;23.98;;;14.60;;
48823;SDS011;34640;53.590;10.054;2022-10-22T04:19:47;25.45;;;15.15;;
48823;SDS011;34640;53.590;10.054;2022-10-22T04:22:22;30.88;;;15.13;;
48823;SDS011;34640;53.590;10.054;2022-10-22T04:24:56;27.75;;;15.15;;
48823;SDS011;34640;53.590;10.054;2022-10-22T04:27:29;28.92;;;14.80;;
48823;SDS011;34640;53.590;10.054;2022-10-22T04:30:04;24.70;;;14.02;;
48823;SDS011;34640;53.590;10.054;2022-10-22T04:32:39;27.85;;;14.80;;
48823;SDS011;34640;53.590;10.054;2022-10-22T04:35:12;27.55;;;15.52;;
48823;SDS011;34640;53.590;10.054;2022-10-22T04:37:48;26.42;;;14.63;;
48823;SDS011;34640;53.590;10.054;2022-10-22T04:40:21;23.50;;;14.20;;
48823;SDS011;34640;53.590;10.054;2022-10-22T04:42:55;33.13;;;16.42;;
48823;SDS011;34640;53.590;10.054;2022-10-22T04:45:29;27.63;;;13.80;;
48823;SDS011;34640;53.590;10.054;2022-10-22T04:48:02;24.00;;;14.80;;
48823;SDS011;34640;53.590;10.054;2022-10-22T04:50:36;31.50;;;16.15;;
48823;SDS011;34640;53.590;10.054;2022-10-22T04:53:11;23.02;;;14.35;;
48823;SDS011;34640;53.590;10.054;2022-10-22T04:55:45;25.42;;;14.02;;
48823;SDS011;34640;53.590;10.054;2022-10-22T04:58:18;27.73;;;14.70;;
48823;SDS011;34640;53.590;10.054;2022-10-22T05:00:52;26.73;;;14.52;;
48823;SDS011;34640;53.590;10.054;2022-10-22T05:03:26;25.42;;;13.60;;
48823;SDS011;34640;53.590;10.054;2022-10-22T05:06:00;23.50;;;14.90;;
48823;SDS011;34640;53.590;10.054;2022-10-22T05:08:35;23.80;;;14.60;;
48823;SDS011;34640;53.590;10.054;2022-10-22T05:11:10;30.52;;;16.08;;
48823;SDS011;34640;53.590;10.054;2022-10-22T05:13:45;27.25;;;15.55;;
48823;SDS011;34640;53.590;10.054;2022-10-22T05:16:19;27.48;;;15.65;;
48823;SDS011;34640;53.590;10.054;2022-10-22T05:18:52;28.00;;;13.63;;
48823;SDS011;34640;53.590;10.054;2022-10-22T05:21:26;29.35;;;14.95;;
48823;SDS011;34640;53.590;10.054;2022-10-22T05:24:02;29.58;;;14.73;;
48823;SDS011;34640;53.590;10.054;2022-10-22T05:26:35;32.00;;;15.35;;
48823;SDS011;34640;53.590;10.054;2022-10-22T05:29:09;40.22;;;16.40;;
48823;SDS011;34640;53.590;10.054;2022-10-22T05:31:43;54.58;;;16.17;;
48823;SDS011;34640;53.590;10.054;2022-10-22T05:34:16;86.63;;;16.50;;
48823;SDS011;34640;53.590;10.054;2022-10-22T05:36:50;104.45;;;18.05;;
48823;SDS011;34640;53.590;10.054;2022-10-22T05:39:25;93.93;;;16.35;;
48823;SDS011;34640;53.590;10.054;2022-10-22T05:41:59;125.40;;;16.95;;
48823;SDS011;34640;53.590;10.054;2022-10-22T05:44:32;89.18;;;15.43;;
48823;SDS011;34640;53.590;10.054;2022-10-22T05:47:06;199.50;;;17.40;;
48823;SDS011;34640;53.590;10.054;2022-10-22T05:49:41;110.95;;;16.52;;
48823;SDS011;34640;53.590;10.054;2022-10-22T05:52:14;170.80;;;17.55;;
48823;SDS011;34640;53.590;10.054;2022-10-22T05:54:49;96.78;;;15.75;;
48823;SDS011;34640;53.590;10.054;2022-10-22T05:57:23;160.27;;;18.25;;
48823;SDS011;34640;53.590;10.054;2022-10-22T05:59:56;143.98;;;16.40;;
48823;SDS011;34640;53.590;10.054;2022-10-22T06:02:30;76.28;;;15.60;;
48823;SDS011;34640;53.590;10.054;2022-10-22T06:05:04;103.22;;;16.67;;
48823;SDS011;34640;53.590;10.054;2022-10-22T06:07:38;98.40;;;16.98;;
48823;SDS011;34640;53.590;10.054;2022-10-22T06:10:14;163.35;;;19.95;;
48823;SDS011;34640;53.590;10.054;2022-10-22T06:15:24;172.88;;;17.33;;
48823;SDS011;34640;53.590;10.054;2022-10-22T06:17:57;223.75;;;19.80;;
48823;SDS011;34640;53.590;10.054;2022-10-22T06:20:32;216.00;;;19.70;;
48823;SDS011;34640;53.590;10.054;2022-10-22T06:23:06;205.77;;;18.67;;
48823;SDS011;34640;53.590;10.054;2022-10-22T06:25:41;291.23;;;22.15;;
48823;SDS011;34640;53.590;10.054;2022-10-22T06:28:15;288.95;;;21.20;;
48823;SDS011;34640;53.590;10.054;2022-10-22T06:30:49;170.00;;;18.75;;
48823;SDS011;34640;53.590;10.054;2022-10-22T06:33:22;111.70;;;17.08;;
48823;SDS011;34640;53.590;10.054;2022-10-22T06:36:03;128.23;;;17.42;;
48823;SDS011;34640;53.590;10.054;2022-10-22T06:38:39;159.43;;;19.88;;
48823;SDS011;34640;53.590;10.054;2022-10-22T06:41:15;118.55;;;19.05;;
48823;SDS011;34640;53.590;10.054;2022-10-22T06:43:49;119.10;;;17.90;;
48823;SDS011;34640;53.590;10.054;2022-10-22T06:46:23;81.75;;;15.60;;
48823;SDS011;34640;53.590;10.054;2022-10-22T06:48:58;88.00;;;17.38;;
48823;SDS011;34640;53.590;10.054;2022-10-22T06:51:33;91.38;;;16.95;;
48823;SDS011;34640;53.590;10.054;2022-10-22T06:54:07;75.60;;;17.20;;
48823;SDS011;34640;53.590;10.054;2022-10-22T06:56:42;66.75;;;16.98;;
48823;SDS011;34640;53.590;10.054;2022-10-22T06:59:16;52.53;;;16.90;;
48823;SDS011;34640;53.590;10.054;2022-10-22T07:01:50;40.60;;;16.58;;
48823;SDS011;34640;53.590;10.054;2022-10-22T07:04:24;36.90;;;17.08;;
48823;SDS011;34640;53.590;10.054;2022-10-22T07:06:57;39.85;;;17.10;;
48823;SDS011;34640;53.590;10.054;2022-10-22T07:09:31;43.58;;;18.10;;
48823;SDS011;34640;53.590;10.054;2022-10-22T07:12:06;43.55;;;16.85;;
48823;SDS011;34640;53.590;10.054;2022-10-22T07:14:40;28.88;;;15.77;;
48823;SDS011;34640;53.590;10.054;2022-10-22T07:17:14;28.95;;;16.95;;
48823;SDS011;34640;53.590;10.054;2022-10-22T07:19:48;27.85;;;15.98;;
48823;SDS011;34640;53.590;10.054;2022-10-22T07:22:23;36.85;;;17.60;;
48823;SDS011;34640;53.590;10.054;2022-10-22T07:24:57;30.42;;;15.55;;
48823;SDS011;34640;53.590;10.054;2022-10-22T07:27:36;29.63;;;16.40;;
48823;SDS011;34640;53.590;10.054;2022-10-22T07:30:10;33.72;;;16.48;;
48823;SDS011;34640;53.590;10.054;2022-10-22T07:32:44;33.40;;;17.27;;
48823;SDS011;34640;53.590;10.054;2022-10-22T07:35:18;38.17;;;17.65;;
48823;SDS011;34640;53.590;10.054;2022-10-22T07:37:52;32.33;;;17.77;;
48823;SDS011;34640;53.590;10.054;2022-10-22T07:40:26;33.08;;;17.27;;
48823;SDS011;34640;53.590;10.054;2022-10-22T07:43:01;30.80;;;18.02;;
48823;SDS011;34640;53.590;10.054;2022-10-22T07:45:35;31.88;;;17.73;;
48823;SDS011;34640;53.590;10.054;2022-10-22T07:48:08;35.63;;;17.83;;
48823;SDS011;34640;53.590;10.054;2022-10-22T07:50:42;34.60;;;18.23;;
48823;SDS011;34640;53.590;10.054;2022-10-22T07:53:16;35.03;;;19.60;;
48823;SDS011;34640;53.590;10.054;2022-10-22T07:55:50;34.15;;;20.05;;
48823;SDS011;34640;53.590;10.054;2022-10-22T07:58:25;44.42;;;20.52;;
48823;SDS011;34640;53.590;10.054;2022-10-22T08:01:00;35.00;;;19.63;;
48823;SDS011;34640;53.590;10.054;2022-10-22T08:03:37;30.60;;;18.77;;
48823;SDS011;34640;53.590;10.054;2022-10-22T08:06:11;32.55;;;19.25;;
48823;SDS011;34640;53.590;10.054;2022-10-22T08:08:46;33.03;;;18.63;;
48823;SDS011;34640;53.590;10.054;2022-10-22T08:11:19;34.05;;;18.15;;
48823;SDS011;34640;53.590;10.054;2022-10-22T08:13:54;30.38;;;18.08;;
48823;SDS011;34640;53.590;10.054;2022-10-22T08:16:28;30.83;;;18.55;;
48823;SDS011;34640;53.590;10.054;2022-10-22T08:19:02;32.67;;;17.92;;
48823;SDS011;34640;53.590;10.054;2022-10-22T08:21:36;29.38;;;17.23;;
48823;SDS011;34640;53.590;10.054;2022-10-22T08:24:10;31.20;;;17.00;;
48823;SDS011;34640;53.590;10.054;2022-10-22T08:26:44;28.77;;;16.80;;
48823;SDS011;34640;53.590;10.054;2022-10-22T08:29:19;28.33;;;17.02;;
48823;SDS011;34640;53.590;10.054;2022-10-22T08:31:54;26.45;;;16.13;;
48823;SDS011;34640;53.590;10.054;2022-10-22T08:34:28;24.15;;;15.70;;
48823;SDS011;34640;53.590;10.054;2022-10-22T08:37:02;25.02;;;15.98;;
48823;SDS011;34640;53.590;10.054;2022-10-22T08:39:36;21.63;;;14.60;;
48823;SDS011;34640;53.590;10.054;2022-10-22T08:42:19;24.63;;;15.27;;
48823;SDS011;34640;53.590;10.054;2022-10-22T08:45:09;29.40;;;13.63;;
48823;SDS011;34640;53.590;10.054;2022-10-22T08:47:53;28.20;;;15.25;;
48823;SDS011;34640;53.590;10.054;2022-10-22T08:50:37;31.27;;;14.82;;
48823;SDS011;34640;53.590;10.054;2022-10-22T08:53:15;22.83;;;14.48;;
48823;SDS011;34640;53.590;10.054;2022-10-22T08:55:51;23.92;;;14.02;;
48823;SDS011;34640;53.590;10.054;2022-10-22T09:01:14;24.35;;;13.07;;
48823;SDS011;34640;53.590;10.054;2022-10-22T09:03:53;22.05;;;12.57;;
48823;SDS011;34640;53.590;10.054;2022-10-22T09:06:39;25.65;;;12.48;;
48823;SDS011;34640;53.590;10.054;2022-10-22T09:09:15;22.20;;;12.10;;
48823;SDS011;34640;53.590;10.054;2022-10-22T09:11:50;24.80;;;12.25;;
48823;SDS011;34640;53.590;10.054;2022-10-22T09:14:25;25.67;;;12.63;;
48823;SDS011;34640;53.590;10.054;2022-10-22T09:17:15;16.15;;;10.70;;
48823;SDS011;34640;53.590;10.054;2022-10-22T09:20:00;22.08;;;11.15;;
48823;SDS011;34640;53.590;10.054;2022-10-22T09:22:41;18.95;;;11.15;;
48823;SDS011;34640;53.590;10.054;2022-10-22T09:25:19;21.05;;;11.05;;
48823;SDS011;34640;53.590;10.054;2022-10-22T09:27:55;18.02;;;8.70;;
48823;SDS011;34640;53.590;10.054;2022-10-22T09:30:33;16.98;;;7.80;;
48823;SDS011;34640;53.590;10.054;2022-10-22T09:33:11;14.38;;;7.63;;
48823;SDS011;34640;53.590;10.054;2022-10-22T09:35:53;21.20;;;8.20;;
48823;SDS011;34640;53.590;10.054;2022-10-22T09:38:30;17.00;;;8.27;;
48823;SDS011;34640;53.590;10.054;2022-10-22T09:41:05;19.30;;;7.60;;
48823;SDS011;34640;53.590;10.054;2022-10-22T09:43:40;19.38;;;8.60;;
48823;SDS011;34640;53.590;10.054;2022-10-22T09:46:17;17.52;;;7.45;;
48823;SDS011;34640;53.590;10.054;2022-10-22T09:49:09;14.30;;;6.35;;
48823;SDS011;34640;53.590;10.054;2022-10-22T09:51:53;14.63;;;6.47;;
48823;SDS011;34640;53.590;10.054;2022-10-22T09:54:37;18.75;;;6.43;;
48823;SDS011;34640;53.590;10.054;2022-10-22T09:57:13;14.73;;;5.47;;
48823;SDS011;34640;53.590;10.054;2022-10-22T09:59:53;16.48;;;5.45;;
48823;SDS011;34640;53.590;10.054;2022-10-22T10:02:28;16.48;;;5.38;;
48823;SDS011;34640;53.590;10.054;2022-10-22T10:05:18;14.65;;;6.22;;
48823;SDS011;34640;53.590;10.054;2022-10-22T10:07:57;12.23;;;5.28;;
48823;SDS011;34640;53.590;10.054;2022-10-22T10:10:34;16.13;;;6.53;;
48823;SDS011;34640;53.590;10.054;2022-10-22T10:13:22;10.52;;;4.18;;
48823;SDS011;34640;53.590;10.054;2022-10-22T10:16:06;12.75;;;4.47;;
48823;SDS011;34640;53.590;10.054;2022-10-22T10:18:50;14.65;;;4.07;;
48823;SDS011;34640;53.590;10.054;2022-10-22T10:21:38;15.25;;;4.20;;
48823;SDS011;34640;53.590;10.054;2022-10-22T10:24:22;14.40;;;4.45;;
48823;SDS011;34640;53.590;10.054;2022-10-22T10:27:07;14.65;;;4.28;;
48823;SDS011;34640;53.590;10.054;2022-10-22T10:29:49;13.10;;;4.60;;
48823;SDS011;34640;53.590;10.054;2022-10-22T10:32:29;12.15;;;3.58;;
48823;SDS011;34640;53.590;10.054;2022-10-22T10:35:24;16.05;;;3.22;;
48823;SDS011;34640;53.590;10.054;2022-10-22T10:38:06;14.48;;;4.18;;
48823;SDS011;34640;53.590;10.054;2022-10-22T10:40:56;10.90;;;3.10;;
48823;SDS011;34640;53.590;10.054;2022-10-22T10:43:37;14.25;;;3.35;;
48823;SDS011;34640;53.590;10.054;2022-10-22T10:46:20;13.25;;;2.95;;
48823;SDS011;34640;53.590;10.054;2022-10-22T10:49:08;14.80;;;2.60;;
48823;SDS011;34640;53.590;10.054;2022-10-22T10:51:52;14.45;;;2.67;;
48823;SDS011;34640;53.590;10.054;2022-10-22T10:54:38;13.30;;;2.63;;
48823;SDS011;34640;53.590;10.054;2022-10-22T10:57:18;13.25;;;3.17;;
48823;SDS011;34640;53.590;10.054;2022-10-22T11:00:02;10.70;;;2.42;;
48823;SDS011;34640;53.590;10.054;2022-10-22T11:02:46;12.93;;;2.65;;
48823;SDS011;34640;53.590;10.054;2022-10-22T11:05:46;10.80;;;2.78;;
48823;SDS011;34640;53.590;10.054;2022-10-22T11:08:25;11.75;;;2.53;;
48823;SDS011;34640;53.590;10.054;2022-10-22T11:11:04;6.82;;;2.22;;
48823;SDS011;34640;53.590;10.054;2022-10-22T11:13:46;14.75;;;6.13;;
48823;SDS011;34640;53.590;10.054;2022-10-22T11:16:26;11.90;;;2.42;;
48823;SDS011;34640;53.590;10.054;2022-10-22T11:19:11;12.77;;;2.90;;
48823;SDS011;34640;53.590;10.054;2022-10-22T11:22:14;10.25;;;2.38;;
48823;SDS011;34640;53.590;10.054;2022-10-22T11:24:59;10.10;;;2.03;;
48823;SDS011;34640;53.590;10.054;2022-10-22T11:27:39;11.50;;;2.33;;
48823;SDS011;34640;53.590;10.054;2022-10-22T11:30:19;9.85;;;3.10;;
48823;SDS011;34640;53.590;10.054;2022-10-22T11:32:55;11.90;;;2.70;;
48823;SDS011;34640;53.590;10.054;2022-10-22T11:35:34;6.20;;;2.10;;
48823;SDS011;34640;53.590;10.054;2022-10-22T11:38:11;9.63;;;2.80;;
48823;SDS011;34640;53.590;10.054;2022-10-22T11:40:50;9.35;;;2.55;;
48823;SDS011;34640;53.590;10.054;2022-10-22T11:43:31;12.02;;;2.50;;
48823;SDS011;34640;53.590;10.054;2022-10-22T11:46:08;9.48;;;2.60;;
48823;SDS011;34640;53.590;10.054;2022-10-22T11:49:00;10.57;;;4.05;;
48823;SDS011;34640;53.590;10.054;2022-10-22T11:51:37;12.85;;;3.78;;
48823;SDS011;34640;53.590;10.054;2022-10-22T11:54:28;10.05;;;2.08;;
48823;SDS011;34640;53.590;10.054;2022-10-22T11:57:21;7.03;;;2.67;;
48823;SDS011;34640;53.590;10.054;2022-10-22T11:59:59;10.40;;;2.28;;
48823;SDS011;34640;53.590;10.054;2022-10-22T12:02:40;8.77;;;2.35;;
48823;SDS011;34640;53.590;10.054;2022-10-22T12:08:15;13.95;;;2.47;;
48823;SDS011;34640;53.590;10.054;2022-10-22T12:10:57;16.17;;;3.00;;
48823;SDS011;34640;53.590;10.054;2022-10-22T12:13:50;10.13;;;1.95;;
48823;SDS011;34640;53.590;10.054;2022-10-22T12:16:36;9.93;;;2.00;;
48823;SDS011;34640;53.590;10.054;2022-10-22T12:19:29;7.30;;;2.30;;
48823;SDS011;34640;53.590;10.054;2022-10-22T12:22:10;7.60;;;2.40;;
48823;SDS011;34640;53.590;10.054;2022-10-22T12:24:48;10.90;;;1.90;;
48823;SDS011;34640;53.590;10.054;2022-10-22T12:27:25;7.88;;;1.92;;
48823;SDS011;34640;53.590;10.054;2022-10-22T12:30:09;7.57;;;2.10;;
48823;SDS011;34640;53.590;10.054;2022-10-22T12:35:26;6.07;;;2.00;;
48823;SDS011;34640;53.590;10.054;2022-10-22T12:38:03;8.40;;;2.08;;
48823;SDS011;34640;53.590;10.054;2022-10-22T12:40:45;4.53;;;2.00;;
48823;SDS011;34640;53.590;10.054;2022-10-22T12:43:23;8.10;;;2.78;;
48823;SDS011;34640;53.590;10.054;2022-10-22T12:45:58;7.55;;;2.20;;
48823;SDS011;34640;53.590;10.054;2022-10-22T12:48:35;9.05;;;2.55;;
48823;SDS011;34640;53.590;10.054;2022-10-22T12:51:14;11.88;;;3.03;;
48823;SDS011;34640;53.590;10.054;2022-10-22T12:53:51;10.57;;;3.03;;
48823;SDS011;34640;53.590;10.054;2022-10-22T12:56:27;8.45;;;2.67;;
48823;SDS011;34640;53.590;10.054;2022-10-22T12:59:04;8.65;;;2.78;;
48823;SDS011;34640;53.590;10.054;2022-10-22T13:01:44;11.93;;;2.63;;
48823;SDS011;34640;53.590;10.054;2022-10-22T13:04:31;12.00;;;2.83;;
48823;SDS011;34640;53.590;10.054;2022-10-22T13:07:16;9.07;;;2.35;;
48823;SDS011;34640;53.590;10.054;2022-10-22T13:09:56;8.63;;;2.83;;
48823;SDS011;34640;53.590;10.054;2022-10-22T13:12:33;11.52;;;2.97;;
48823;SDS011;34640;53.590;10.054;2022-10-22T13:15:19;13.10;;;2.67;;
48823;SDS011;34640;53.590;10.054;2022-10-22T13:18:00;8.98;;;2.88;;
48823;SDS011;34640;53.590;10.054;2022-10-22T13:20:36;7.28;;;2.22;;
48823;SDS011;34640;53.590;10.054;2022-10-22T13:23:23;10.05;;;2.60;;
48823;SDS011;34640;53.590;10.054;2022-10-22T13:25:59;8.63;;;2.42;;
48823;SDS011;34640;53.590;10.054;2022-10-22T13:28:35;22.75;;;3.35;;
48823;SDS011;34640;53.590;10.054;2022-10-22T13:31:10;10.23;;;2.70;;
48823;SDS011;34640;53.590;10.054;2022-10-22T13:33:50;9.77;;;2.85;;
48823;SDS011;34640;53.590;10.054;2022-10-22T13:36:29;9.52;;;2.72;;
48823;SDS011;34640;53.590;10.054;2022-10-22T13:39:03;8.02;;;2.58;;
48823;SDS011;34640;53.590;10.054;2022-10-22T13:41:39;12.70;;;2.13;;
48823;SDS011;34640;53.590;10.054;2022-10-22T13:44:13;11.23;;;2.33;;
48823;SDS011;34640;53.590;10.054;2022-10-22T13:46:46;7.82;;;2.55;;
48823;SDS011;34640;53.590;10.054;2022-10-22T13:49:21;14.05;;;2.40;;
48823;SDS011;34640;53.590;10.054;2022-10-22T13:51:56;16.75;;;2.80;;
48823;SDS011;34640;53.590;10.054;2022-10-22T13:54:32;9.93;;;2.45;;
48823;SDS011;34640;53.590;10.054;2022-10-22T13:57:07;8.85;;;2.30;;
48823;SDS011;34640;53.590;10.054;2022-10-22T13:59:41;9.18;;;2.80;;
48823;SDS011;34640;53.590;10.054;2022-10-22T14:02:15;7.22;;;2.63;;
48823;SDS011;34640;53.590;10.054;2022-10-22T14:04:51;8.13;;;2.70;;
48823;SDS011;34640;53.590;10.054;2022-10-22T14:07:26;9.25;;;2.30;;
48823;SDS011;34640;53.590;10.054;2022-10-22T14:09:59;8.95;;;2.60;;
48823;SDS011;34640;53.590;10.054;2022-10-22T14:12:33;8.60;;;2.63;;
48823;SDS011;34640;53.590;10.054;2022-10-22T14:15:08;11.10;;;2.30;;
48823;SDS011;34640;53.590;10.054;2022-10-22T14:17:44;8.45;;;2.42;;
48823;SDS011;34640;53.590;10.054;2022-10-22T14:20:21;13.40;;;2.55;;
48823;SDS011;34640;53.590;10.054;2022-10-22T14:22:59;11.85;;;3.17;;
48823;SDS011;34640;53.590;10.054;2022-10-22T14:25:37;13.50;;;2.47;;
48823;SDS011;34640;53.590;10.054;2022-10-22T14:28:11;17.42;;;2.40;;
48823;SDS011;34640;53.590;10.054;2022-10-22T14:30:46;11.85;;;2.42;;
48823;SDS011;34640;53.590;10.054;2022-10-22T14:33:20;13.88;;;2.80;;
48823;SDS011;34640;53.590;10.054;2022-10-22T14:36:02;9.02;;;2.78;;
48823;SDS011;34640;53.590;10.054;2022-10-22T14:38:37;9.85;;;2.70;;
48823;SDS011;34640;53.590;10.054;2022-10-22T14:41:14;10.38;;;2.38;;
48823;SDS011;34640;53.590;10.054;2022-10-22T14:43:51;8.30;;;2.40;;
48823;SDS011;34640;53.590;10.054;2022-10-22T14:46:26;7.72;;;1.92;;
48823;SDS011;34640;53.590;10.054;2022-10-22T14:49:00;13.57;;;3.20;;
48823;SDS011;34640;53.590;10.054;2022-10-22T14:51:34;12.35;;;3.47;;
48823;SDS011;34640;53.590;10.054;2022-10-22T14:54:09;11.20;;;3.05;;
48823;SDS011;34640;53.590;10.054;2022-10-22T14:56:43;8.18;;;1.95;;
48823;SDS011;34640;53.590;10.054;2022-10-22T14:59:16;11.05;;;2.42;;
48823;SDS011;34640;53.590;10.054;2022-10-22T15:01:50;8.00;;;2.40;;
48823;SDS011;34640;53.590;10.054;2022-10-22T15:04:23;13.48;;;2.45;;
48823;SDS011;34640;53.590;10.054;2022-10-22T15:06:59;11.75;;;2.20;;
48823;SDS011;34640;53.590;10.054;2022-10-22T15:09:34;10.63;;;2.58;;
48823;SDS011;34640;53.590;10.054;2022-10-22T15:12:08;6.60;;;2.15;;
48823;SDS011;34640;53.590;10.054;2022-10-22T15:14:41;9.65;;;3.05;;
48823;SDS011;34640;53.590;10.054;2022-10-22T15:17:16;6.45;;;2.17;;
48823;SDS011;34640;53.590;10.054;2022-10-22T15:19:49;12.40;;;2.55;;
48823;SDS011;34640;53.590;10.054;2022-10-22T15:22:24;9.82;;;2.30;;